Ilfracombe, United Kingdom
Current Conditions -  °F | °C
As of 12:12 PM on Monday 20 Oct 2014 (Local Time) from EGDX Reporting Station
Rain Showers Rain Showers  
Wind Chill: 14°   Ceiling: 4000
Heat Index: 14°   Visibility: 2.5mi
Dew Point: 11°   Wind: 17mph
Humidity: 82%   Direction: 280°W
Pressure: 30"   Gusts: 29mph
Location:  51.21°N, 4.11°W
Report Text: EGDX 201112Z 28015G25KT 4000 SHRA SCT014 SCT022 BKN040 14/11 Q1016 GRN
Loading
Personal Weather Stations






























Interactive Weather Map
Tropical Storm Tracking
New forecast layout! Learn more

10-Day Weather Forecast

Advertisements
Track Severe Weather on mobile